sensor_id;sensor_type;location;lat;lon;timestamp;P1;durP1;ratioP1;P2;durP2;ratioP2
69260;SDS011;56378;52.404;20.816;2024-02-15T00:00:28;15.88;;;5.97;;
69260;SDS011;56378;52.404;20.816;2024-02-15T00:02:53;16.65;;;6.60;;
69260;SDS011;56378;52.404;20.816;2024-02-15T00:05:19;15.02;;;6.18;;
69260;SDS011;56378;52.404;20.816;2024-02-15T00:07:45;14.03;;;5.97;;
69260;SDS011;56378;52.404;20.816;2024-02-15T00:10:13;14.45;;;5.40;;
69260;SDS011;56378;52.404;20.816;2024-02-15T00:12:40;14.73;;;6.18;;
69260;SDS011;56378;52.404;20.816;2024-02-15T00:15:05;16.40;;;6.68;;
69260;SDS011;56378;52.404;20.816;2024-02-15T00:17:31;17.05;;;6.13;;
69260;SDS011;56378;52.404;20.816;2024-02-15T00:19:58;15.65;;;6.40;;
69260;SDS011;56378;52.404;20.816;2024-02-15T00:22:25;16.58;;;5.78;;
69260;SDS011;56378;52.404;20.816;2024-02-15T00:24:50;16.83;;;5.93;;
69260;SDS011;56378;52.404;20.816;2024-02-15T00:27:16;16.38;;;6.28;;
69260;SDS011;56378;52.404;20.816;2024-02-15T00:29:42;18.23;;;6.10;;
69260;SDS011;56378;52.404;20.816;2024-02-15T00:32:08;15.07;;;6.18;;
69260;SDS011;56378;52.404;20.816;2024-02-15T00:34:36;14.68;;;6.25;;
69260;SDS011;56378;52.404;20.816;2024-02-15T00:37:03;17.52;;;5.60;;
69260;SDS011;56378;52.404;20.816;2024-02-15T00:39:30;14.30;;;6.15;;
69260;SDS011;56378;52.404;20.816;2024-02-15T00:41:56;13.63;;;5.88;;
69260;SDS011;56378;52.404;20.816;2024-02-15T00:44:25;16.45;;;5.90;;
69260;SDS011;56378;52.404;20.816;2024-02-15T00:46:51;17.45;;;6.75;;
69260;SDS011;56378;52.404;20.816;2024-02-15T00:49:17;18.07;;;6.83;;
69260;SDS011;56378;52.404;20.816;2024-02-15T00:51:45;16.35;;;6.40;;
69260;SDS011;56378;52.404;20.816;2024-02-15T00:54:12;16.17;;;6.88;;
69260;SDS011;56378;52.404;20.816;2024-02-15T00:56:37;16.70;;;6.10;;
69260;SDS011;56378;52.404;20.816;2024-02-15T00:59:03;13.63;;;5.50;;
69260;SDS011;56378;52.404;20.816;2024-02-15T01:01:30;15.38;;;5.95;;
69260;SDS011;56378;52.404;20.816;2024-02-15T01:03:56;15.93;;;6.30;;
69260;SDS011;56378;52.404;20.816;2024-02-15T01:06:22;14.93;;;5.23;;
69260;SDS011;56378;52.404;20.816;2024-02-15T01:08:48;17.92;;;6.38;;
69260;SDS011;56378;52.404;20.816;2024-02-15T01:11:14;16.40;;;5.82;;
69260;SDS011;56378;52.404;20.816;2024-02-15T01:13:40;18.73;;;6.80;;
69260;SDS011;56378;52.404;20.816;2024-02-15T01:16:06;16.00;;;6.03;;
69260;SDS011;56378;52.404;20.816;2024-02-15T01:18:33;16.50;;;6.15;;
69260;SDS011;56378;52.404;20.816;2024-02-15T01:20:59;14.23;;;5.63;;
69260;SDS011;56378;52.404;20.816;2024-02-15T01:23:25;14.10;;;5.83;;
69260;SDS011;56378;52.404;20.816;2024-02-15T01:25:52;15.75;;;6.35;;
69260;SDS011;56378;52.404;20.816;2024-02-15T01:28:18;16.05;;;5.95;;
69260;SDS011;56378;52.404;20.816;2024-02-15T01:30:44;13.95;;;5.72;;
69260;SDS011;56378;52.404;20.816;2024-02-15T01:33:11;18.03;;;6.27;;
69260;SDS011;56378;52.404;20.816;2024-02-15T01:35:36;15.45;;;5.80;;
69260;SDS011;56378;52.404;20.816;2024-02-15T01:38:03;15.35;;;6.03;;
69260;SDS011;56378;52.404;20.816;2024-02-15T01:40:29;14.93;;;6.38;;
69260;SDS011;56378;52.404;20.816;2024-02-15T01:42:55;16.07;;;5.90;;
69260;SDS011;56378;52.404;20.816;2024-02-15T01:45:21;17.38;;;6.03;;
69260;SDS011;56378;52.404;20.816;2024-02-15T01:47:47;16.80;;;6.07;;
69260;SDS011;56378;52.404;20.816;2024-02-15T01:50:14;14.30;;;5.80;;
69260;SDS011;56378;52.404;20.816;2024-02-15T01:52:42;18.10;;;6.10;;
69260;SDS011;56378;52.404;20.816;2024-02-15T01:55:12;20.77;;;6.15;;
69260;SDS011;56378;52.404;20.816;2024-02-15T01:57:40;15.82;;;6.30;;
69260;SDS011;56378;52.404;20.816;2024-02-15T02:00:11;14.50;;;6.13;;
69260;SDS011;56378;52.404;20.816;2024-02-15T02:02:38;15.55;;;5.43;;
69260;SDS011;56378;52.404;20.816;2024-02-15T02:05:06;16.92;;;6.40;;
69260;SDS011;56378;52.404;20.816;2024-02-15T02:07:33;15.00;;;5.65;;
69260;SDS011;56378;52.404;20.816;2024-02-15T02:09:59;14.48;;;6.18;;
69260;SDS011;56378;52.404;20.816;2024-02-15T02:12:25;15.30;;;5.90;;
69260;SDS011;56378;52.404;20.816;2024-02-15T02:14:53;17.20;;;6.20;;
69260;SDS011;56378;52.404;20.816;2024-02-15T02:17:19;18.20;;;6.50;;
69260;SDS011;56378;52.404;20.816;2024-02-15T02:19:46;17.17;;;6.60;;
69260;SDS011;56378;52.404;20.816;2024-02-15T02:22:14;19.38;;;6.57;;
69260;SDS011;56378;52.404;20.816;2024-02-15T02:24:55;17.87;;;6.33;;
69260;SDS011;56378;52.404;20.816;2024-02-15T02:27:26;16.48;;;5.90;;
69260;SDS011;56378;52.404;20.816;2024-02-15T02:29:56;17.35;;;6.13;;
69260;SDS011;56378;52.404;20.816;2024-02-15T02:32:24;14.98;;;6.18;;
69260;SDS011;56378;52.404;20.816;2024-02-15T02:34:51;14.48;;;6.28;;
69260;SDS011;56378;52.404;20.816;2024-02-15T02:37:25;18.27;;;6.17;;
69260;SDS011;56378;52.404;20.816;2024-02-15T02:39:51;17.80;;;6.43;;
69260;SDS011;56378;52.404;20.816;2024-02-15T02:42:16;16.33;;;6.05;;
69260;SDS011;56378;52.404;20.816;2024-02-15T02:44:42;16.52;;;6.60;;
69260;SDS011;56378;52.404;20.816;2024-02-15T02:47:08;15.77;;;6.00;;
69260;SDS011;56378;52.404;20.816;2024-02-15T02:49:37;20.33;;;6.72;;
69260;SDS011;56378;52.404;20.816;2024-02-15T02:52:03;16.88;;;6.72;;
69260;SDS011;56378;52.404;20.816;2024-02-15T02:54:29;15.83;;;5.57;;
69260;SDS011;56378;52.404;20.816;2024-02-15T02:56:55;17.83;;;6.60;;
69260;SDS011;56378;52.404;20.816;2024-02-15T02:59:21;16.33;;;6.28;;
69260;SDS011;56378;52.404;20.816;2024-02-15T03:01:47;16.23;;;6.23;;
69260;SDS011;56378;52.404;20.816;2024-02-15T03:04:16;14.32;;;6.50;;
69260;SDS011;56378;52.404;20.816;2024-02-15T03:06:42;17.98;;;6.68;;
69260;SDS011;56378;52.404;20.816;2024-02-15T03:09:08;14.95;;;6.30;;
69260;SDS011;56378;52.404;20.816;2024-02-15T03:11:35;15.25;;;6.22;;
69260;SDS011;56378;52.404;20.816;2024-02-15T03:14:01;15.57;;;6.65;;
69260;SDS011;56378;52.404;20.816;2024-02-15T03:16:29;13.30;;;6.03;;
69260;SDS011;56378;52.404;20.816;2024-02-15T03:18:56;18.15;;;6.10;;
69260;SDS011;56378;52.404;20.816;2024-02-15T03:21:22;19.63;;;6.88;;
69260;SDS011;56378;52.404;20.816;2024-02-15T03:23:47;17.88;;;6.47;;
69260;SDS011;56378;52.404;20.816;2024-02-15T03:26:13;16.50;;;6.40;;
69260;SDS011;56378;52.404;20.816;2024-02-15T03:28:39;14.10;;;5.90;;
69260;SDS011;56378;52.404;20.816;2024-02-15T03:31:05;16.50;;;6.20;;
69260;SDS011;56378;52.404;20.816;2024-02-15T03:33:30;16.97;;;6.53;;
69260;SDS011;56378;52.404;20.816;2024-02-15T03:36:00;15.82;;;6.32;;
69260;SDS011;56378;52.404;20.816;2024-02-15T03:38:26;19.38;;;6.35;;
69260;SDS011;56378;52.404;20.816;2024-02-15T03:40:54;19.00;;;6.57;;
69260;SDS011;56378;52.404;20.816;2024-02-15T03:43:21;17.05;;;6.72;;
69260;SDS011;56378;52.404;20.816;2024-02-15T03:45:48;18.03;;;6.10;;
69260;SDS011;56378;52.404;20.816;2024-02-15T03:48:14;14.98;;;6.47;;
69260;SDS011;56378;52.404;20.816;2024-02-15T03:50:40;15.93;;;6.22;;
69260;SDS011;56378;52.404;20.816;2024-02-15T03:53:07;16.03;;;6.27;;
69260;SDS011;56378;52.404;20.816;2024-02-15T03:55:34;16.58;;;6.57;;
69260;SDS011;56378;52.404;20.816;2024-02-15T03:58:01;16.20;;;6.75;;
69260;SDS011;56378;52.404;20.816;2024-02-15T04:00:27;17.05;;;6.43;;
69260;SDS011;56378;52.404;20.816;2024-02-15T04:02:53;18.80;;;6.73;;
69260;SDS011;56378;52.404;20.816;2024-02-15T04:05:18;16.13;;;6.43;;
69260;SDS011;56378;52.404;20.816;2024-02-15T04:07:46;18.45;;;6.47;;
69260;SDS011;56378;52.404;20.816;2024-02-15T04:10:13;17.83;;;6.40;;
69260;SDS011;56378;52.404;20.816;2024-02-15T04:12:39;15.65;;;6.53;;
69260;SDS011;56378;52.404;20.816;2024-02-15T04:15:07;18.42;;;7.00;;
69260;SDS011;56378;52.404;20.816;2024-02-15T04:17:37;14.50;;;6.25;;
69260;SDS011;56378;52.404;20.816;2024-02-15T04:20:03;15.25;;;6.53;;
69260;SDS011;56378;52.404;20.816;2024-02-15T04:22:31;16.70;;;6.40;;
69260;SDS011;56378;52.404;20.816;2024-02-15T04:25:02;18.17;;;6.90;;
69260;SDS011;56378;52.404;20.816;2024-02-15T04:27:29;17.20;;;6.88;;
69260;SDS011;56378;52.404;20.816;2024-02-15T04:29:55;19.47;;;6.90;;
69260;SDS011;56378;52.404;20.816;2024-02-15T04:32:21;15.88;;;6.70;;
69260;SDS011;56378;52.404;20.816;2024-02-15T04:34:46;17.25;;;6.80;;
69260;SDS011;56378;52.404;20.816;2024-02-15T04:37:13;15.27;;;6.07;;
69260;SDS011;56378;52.404;20.816;2024-02-15T04:39:39;17.77;;;6.75;;
69260;SDS011;56378;52.404;20.816;2024-02-15T04:42:05;18.45;;;6.88;;
69260;SDS011;56378;52.404;20.816;2024-02-15T04:44:34;19.90;;;7.40;;
69260;SDS011;56378;52.404;20.816;2024-02-15T04:47:01;15.05;;;6.47;;
69260;SDS011;56378;52.404;20.816;2024-02-15T04:49:29;16.30;;;6.72;;
69260;SDS011;56378;52.404;20.816;2024-02-15T04:51:55;16.73;;;6.72;;
69260;SDS011;56378;52.404;20.816;2024-02-15T04:54:22;14.50;;;6.53;;
69260;SDS011;56378;52.404;20.816;2024-02-15T04:56:48;18.23;;;6.78;;
69260;SDS011;56378;52.404;20.816;2024-02-15T04:59:17;17.30;;;6.95;;
69260;SDS011;56378;52.404;20.816;2024-02-15T05:01:44;18.40;;;6.93;;
69260;SDS011;56378;52.404;20.816;2024-02-15T05:04:10;17.53;;;7.00;;
69260;SDS011;56378;52.404;20.816;2024-02-15T05:06:37;19.30;;;7.15;;
69260;SDS011;56378;52.404;20.816;2024-02-15T05:09:03;16.90;;;7.22;;
69260;SDS011;56378;52.404;20.816;2024-02-15T05:11:38;20.60;;;7.05;;
69260;SDS011;56378;52.404;20.816;2024-02-15T05:14:12;16.58;;;6.78;;
69260;SDS011;56378;52.404;20.816;2024-02-15T05:16:44;16.92;;;7.10;;
69260;SDS011;56378;52.404;20.816;2024-02-15T05:19:13;21.67;;;7.30;;
69260;SDS011;56378;52.404;20.816;2024-02-15T05:21:39;17.92;;;7.13;;
69260;SDS011;56378;52.404;20.816;2024-02-15T05:24:05;17.92;;;7.05;;
69260;SDS011;56378;52.404;20.816;2024-02-15T05:26:31;19.47;;;7.10;;
69260;SDS011;56378;52.404;20.816;2024-02-15T05:28:57;17.80;;;7.10;;
69260;SDS011;56378;52.404;20.816;2024-02-15T05:31:23;16.67;;;7.60;;
69260;SDS011;56378;52.404;20.816;2024-02-15T05:33:52;17.13;;;6.78;;
69260;SDS011;56378;52.404;20.816;2024-02-15T05:36:22;18.63;;;7.20;;
69260;SDS011;56378;52.404;20.816;2024-02-15T05:38:52;19.55;;;7.68;;
69260;SDS011;56378;52.404;20.816;2024-02-15T05:41:19;18.00;;;7.05;;
69260;SDS011;56378;52.404;20.816;2024-02-15T05:43:46;16.52;;;7.10;;
69260;SDS011;56378;52.404;20.816;2024-02-15T05:46:13;18.35;;;7.45;;
69260;SDS011;56378;52.404;20.816;2024-02-15T05:48:40;18.23;;;7.07;;
69260;SDS011;56378;52.404;20.816;2024-02-15T05:51:07;18.40;;;7.32;;
69260;SDS011;56378;52.404;20.816;2024-02-15T05:53:33;19.83;;;7.18;;
69260;SDS011;56378;52.404;20.816;2024-02-15T05:56:01;16.58;;;6.40;;
69260;SDS011;56378;52.404;20.816;2024-02-15T05:58:29;14.75;;;6.72;;
69260;SDS011;56378;52.404;20.816;2024-02-15T06:00:56;20.50;;;7.60;;
69260;SDS011;56378;52.404;20.816;2024-02-15T06:03:26;17.40;;;7.35;;
69260;SDS011;56378;52.404;20.816;2024-02-15T06:05:53;18.30;;;7.05;;
69260;SDS011;56378;52.404;20.816;2024-02-15T06:08:26;17.27;;;7.45;;
69260;SDS011;56378;52.404;20.816;2024-02-15T06:10:57;23.60;;;7.90;;
69260;SDS011;56378;52.404;20.816;2024-02-15T06:13:25;13.33;;;6.73;;
69260;SDS011;56378;52.404;20.816;2024-02-15T06:15:52;18.70;;;7.78;;
69260;SDS011;56378;52.404;20.816;2024-02-15T06:18:22;21.38;;;8.82;;
69260;SDS011;56378;52.404;20.816;2024-02-15T06:20:53;20.63;;;8.25;;
69260;SDS011;56378;52.404;20.816;2024-02-15T06:23:23;18.55;;;8.13;;
69260;SDS011;56378;52.404;20.816;2024-02-15T06:25:51;18.75;;;7.93;;
69260;SDS011;56378;52.404;20.816;2024-02-15T06:28:25;20.08;;;8.35;;
69260;SDS011;56378;52.404;20.816;2024-02-15T06:31:10;20.73;;;8.80;;
69260;SDS011;56378;52.404;20.816;2024-02-15T06:33:55;22.73;;;8.82;;
69260;SDS011;56378;52.404;20.816;2024-02-15T06:36:40;21.23;;;8.48;;
69260;SDS011;56378;52.404;20.816;2024-02-15T06:39:30;19.95;;;8.38;;
69260;SDS011;56378;52.404;20.816;2024-02-15T06:42:03;23.00;;;9.68;;
69260;SDS011;56378;52.404;20.816;2024-02-15T06:44:29;23.25;;;9.65;;
69260;SDS011;56378;52.404;20.816;2024-02-15T06:46:55;27.75;;;10.07;;
69260;SDS011;56378;52.404;20.816;2024-02-15T06:49:22;27.00;;;10.00;;
69260;SDS011;56378;52.404;20.816;2024-02-15T06:51:50;23.63;;;10.13;;
69260;SDS011;56378;52.404;20.816;2024-02-15T06:54:16;21.92;;;10.15;;
69260;SDS011;56378;52.404;20.816;2024-02-15T06:56:44;26.88;;;10.27;;
69260;SDS011;56378;52.404;20.816;2024-02-15T06:59:11;23.33;;;10.93;;
69260;SDS011;56378;52.404;20.816;2024-02-15T07:01:41;23.10;;;10.77;;
69260;SDS011;56378;52.404;20.816;2024-02-15T07:04:08;21.75;;;10.60;;
69260;SDS011;56378;52.404;20.816;2024-02-15T07:06:36;27.73;;;10.68;;
69260;SDS011;56378;52.404;20.816;2024-02-15T07:09:03;26.38;;;10.90;;
69260;SDS011;56378;52.404;20.816;2024-02-15T07:11:30;26.97;;;10.87;;
69260;SDS011;56378;52.404;20.816;2024-02-15T07:14:00;27.35;;;11.00;;
69260;SDS011;56378;52.404;20.816;2024-02-15T07:16:26;30.13;;;12.07;;
69260;SDS011;56378;52.404;20.816;2024-02-15T07:18:52;26.50;;;11.95;;
69260;SDS011;56378;52.404;20.816;2024-02-15T07:21:19;26.75;;;11.77;;
69260;SDS011;56378;52.404;20.816;2024-02-15T07:23:48;31.90;;;12.82;;
69260;SDS011;56378;52.404;20.816;2024-02-15T07:26:13;28.58;;;12.50;;
69260;SDS011;56378;52.404;20.816;2024-02-15T07:28:40;28.95;;;12.32;;
69260;SDS011;56378;52.404;20.816;2024-02-15T07:31:06;29.30;;;11.63;;
69260;SDS011;56378;52.404;20.816;2024-02-15T07:33:32;33.00;;;13.27;;
69260;SDS011;56378;52.404;20.816;2024-02-15T07:36:00;28.27;;;12.68;;
69260;SDS011;56378;52.404;20.816;2024-02-15T07:38:26;27.83;;;12.47;;
69260;SDS011;56378;52.404;20.816;2024-02-15T07:40:52;29.20;;;12.93;;
69260;SDS011;56378;52.404;20.816;2024-02-15T07:43:18;32.78;;;13.32;;
69260;SDS011;56378;52.404;20.816;2024-02-15T07:45:44;26.53;;;12.73;;
69260;SDS011;56378;52.404;20.816;2024-02-15T07:48:09;31.23;;;13.00;;
69260;SDS011;56378;52.404;20.816;2024-02-15T07:50:35;31.00;;;13.23;;
69260;SDS011;56378;52.404;20.816;2024-02-15T07:53:03;33.10;;;13.07;;
69260;SDS011;56378;52.404;20.816;2024-02-15T07:55:33;30.92;;;13.85;;
69260;SDS011;56378;52.404;20.816;2024-02-15T07:57:59;32.97;;;13.80;;
69260;SDS011;56378;52.404;20.816;2024-02-15T08:00:25;32.17;;;13.83;;
69260;SDS011;56378;52.404;20.816;2024-02-15T08:02:52;37.10;;;15.45;;
69260;SDS011;56378;52.404;20.816;2024-02-15T08:05:18;34.95;;;14.23;;
69260;SDS011;56378;52.404;20.816;2024-02-15T08:07:46;34.85;;;15.32;;
69260;SDS011;56378;52.404;20.816;2024-02-15T08:10:15;37.17;;;15.13;;
69260;SDS011;56378;52.404;20.816;2024-02-15T08:12:41;36.70;;;14.98;;
69260;SDS011;56378;52.404;20.816;2024-02-15T08:15:11;37.00;;;16.35;;
69260;SDS011;56378;52.404;20.816;2024-02-15T08:17:46;33.50;;;14.73;;
69260;SDS011;56378;52.404;20.816;2024-02-15T08:20:12;33.85;;;15.05;;
69260;SDS011;56378;52.404;20.816;2024-02-15T08:22:38;31.85;;;13.95;;
69260;SDS011;56378;52.404;20.816;2024-02-15T08:25:09;32.22;;;15.52;;
69260;SDS011;56378;52.404;20.816;2024-02-15T08:27:39;36.15;;;15.80;;
69260;SDS011;56378;52.404;20.816;2024-02-15T08:30:09;36.95;;;15.65;;
69260;SDS011;56378;52.404;20.816;2024-02-15T08:32:38;36.83;;;16.13;;
69260;SDS011;56378;52.404;20.816;2024-02-15T08:35:07;40.58;;;16.48;;
69260;SDS011;56378;52.404;20.816;2024-02-15T08:37:34;36.70;;;16.15;;
69260;SDS011;56378;52.404;20.816;2024-02-15T08:40:04;33.72;;;16.42;;
69260;SDS011;56378;52.404;20.816;2024-02-15T08:42:36;35.50;;;15.38;;
69260;SDS011;56378;52.404;20.816;2024-02-15T08:45:07;33.03;;;15.25;;
69260;SDS011;56378;52.404;20.816;2024-02-15T08:47:37;32.88;;;15.45;;
69260;SDS011;56378;52.404;20.816;2024-02-15T08:50:04;44.35;;;17.10;;
69260;SDS011;56378;52.404;20.816;2024-02-15T08:52:31;34.50;;;16.20;;
69260;SDS011;56378;52.404;20.816;2024-02-15T08:54:57;34.47;;;15.55;;
69260;SDS011;56378;52.404;20.816;2024-02-15T08:57:24;36.08;;;15.93;;
69260;SDS011;56378;52.404;20.816;2024-02-15T08:59:51;38.00;;;16.23;;
69260;SDS011;56378;52.404;20.816;2024-02-15T09:02:20;37.30;;;16.65;;
69260;SDS011;56378;52.404;20.816;2024-02-15T09:04:46;35.33;;;15.40;;
69260;SDS011;56378;52.404;20.816;2024-02-15T09:07:12;31.90;;;15.57;;
69260;SDS011;56378;52.404;20.816;2024-02-15T09:09:37;33.67;;;16.50;;
69260;SDS011;56378;52.404;20.816;2024-02-15T09:12:03;34.42;;;15.85;;
69260;SDS011;56378;52.404;20.816;2024-02-15T09:14:32;34.13;;;16.05;;
69260;SDS011;56378;52.404;20.816;2024-02-15T09:17:01;38.78;;;16.95;;
69260;SDS011;56378;52.404;20.816;2024-02-15T09:19:32;33.40;;;16.40;;
69260;SDS011;56378;52.404;20.816;2024-02-15T09:21:58;35.25;;;15.70;;
69260;SDS011;56378;52.404;20.816;2024-02-15T09:24:24;31.85;;;15.25;;
69260;SDS011;56378;52.404;20.816;2024-02-15T09:26:50;37.57;;;16.37;;
69260;SDS011;56378;52.404;20.816;2024-02-15T09:29:17;35.00;;;16.55;;
69260;SDS011;56378;52.404;20.816;2024-02-15T09:31:46;41.17;;;16.45;;
69260;SDS011;56378;52.404;20.816;2024-02-15T09:34:14;37.67;;;16.77;;
69260;SDS011;56378;52.404;20.816;2024-02-15T09:36:40;39.63;;;16.50;;
69260;SDS011;56378;52.404;20.816;2024-02-15T09:39:06;31.20;;;15.82;;
69260;SDS011;56378;52.404;20.816;2024-02-15T09:41:32;32.67;;;17.30;;
69260;SDS011;56378;52.404;20.816;2024-02-15T09:43:59;40.78;;;16.67;;
69260;SDS011;56378;52.404;20.816;2024-02-15T09:46:26;35.92;;;16.25;;
69260;SDS011;56378;52.404;20.816;2024-02-15T09:48:52;38.90;;;16.67;;
69260;SDS011;56378;52.404;20.816;2024-02-15T09:51:25;35.85;;;17.02;;
69260;SDS011;56378;52.404;20.816;2024-02-15T09:53:56;37.03;;;16.60;;
69260;SDS011;56378;52.404;20.816;2024-02-15T09:56:26;38.17;;;17.08;;
69260;SDS011;56378;52.404;20.816;2024-02-15T09:58:54;33.10;;;16.40;;
69260;SDS011;56378;52.404;20.816;2024-02-15T10:01:19;35.33;;;17.43;;
69260;SDS011;56378;52.404;20.816;2024-02-15T10:03:49;36.38;;;17.02;;
69260;SDS011;56378;52.404;20.816;2024-02-15T10:06:18;35.92;;;16.25;;
69260;SDS011;56378;52.404;20.816;2024-02-15T10:08:45;33.60;;;16.92;;
69260;SDS011;56378;52.404;20.816;2024-02-15T10:11:12;34.55;;;16.60;;
69260;SDS011;56378;52.404;20.816;2024-02-15T10:13:38;35.13;;;16.95;;
69260;SDS011;56378;52.404;20.816;2024-02-15T10:16:38;33.25;;;16.70;;
69260;SDS011;56378;52.404;20.816;2024-02-15T10:19:09;35.75;;;17.27;;
69260;SDS011;56378;52.404;20.816;2024-02-15T10:21:36;33.58;;;16.73;;
69260;SDS011;56378;52.404;20.816;2024-02-15T10:27:24;35.22;;;16.98;;
69260;SDS011;56378;52.404;20.816;2024-02-15T10:29:50;37.13;;;16.70;;
69260;SDS011;56378;52.404;20.816;2024-02-15T10:32:16;38.30;;;17.67;;
69260;SDS011;56378;52.404;20.816;2024-02-15T10:34:44;35.00;;;17.15;;
69260;SDS011;56378;52.404;20.816;2024-02-15T10:37:11;35.90;;;16.70;;
69260;SDS011;56378;52.404;20.816;2024-02-15T10:39:44;33.97;;;17.45;;
69260;SDS011;56378;52.404;20.816;2024-02-15T10:42:09;35.57;;;16.87;;
69260;SDS011;56378;52.404;20.816;2024-02-15T10:44:36;36.85;;;17.45;;
69260;SDS011;56378;52.404;20.816;2024-02-15T10:47:03;35.88;;;17.13;;
69260;SDS011;56378;52.404;20.816;2024-02-15T10:49:32;36.47;;;17.15;;
69260;SDS011;56378;52.404;20.816;2024-02-15T10:51:59;34.53;;;17.15;;
69260;SDS011;56378;52.404;20.816;2024-02-15T10:57:20;35.05;;;17.05;;
69260;SDS011;56378;52.404;20.816;2024-02-15T10:59:55;36.80;;;16.85;;
69260;SDS011;56378;52.404;20.816;2024-02-15T11:04:55;36.13;;;17.00;;
69260;SDS011;56378;52.404;20.816;2024-02-15T11:07:28;35.50;;;16.50;;
69260;SDS011;56378;52.404;20.816;2024-02-15T11:09:56;34.72;;;17.55;;
69260;SDS011;56378;52.404;20.816;2024-02-15T11:12:22;39.55;;;17.42;;
69260;SDS011;56378;52.404;20.816;2024-02-15T11:14:50;33.03;;;17.17;;
69260;SDS011;56378;52.404;20.816;2024-02-15T11:20:02;32.88;;;17.25;;
69260;SDS011;56378;52.404;20.816;2024-02-15T11:22:35;37.22;;;18.05;;
69260;SDS011;56378;52.404;20.816;2024-02-15T11:25:02;34.90;;;17.17;;
69260;SDS011;56378;52.404;20.816;2024-02-15T11:27:37;38.28;;;17.33;;
69260;SDS011;56378;52.404;20.816;2024-02-15T11:30:04;37.20;;;17.90;;
69260;SDS011;56378;52.404;20.816;2024-02-15T11:35:14;38.00;;;18.35;;
69260;SDS011;56378;52.404;20.816;2024-02-15T11:40:25;35.20;;;18.25;;
69260;SDS011;56378;52.404;20.816;2024-02-15T11:42:54;36.30;;;17.47;;
69260;SDS011;56378;52.404;20.816;2024-02-15T11:45:22;37.63;;;19.30;;
69260;SDS011;56378;52.404;20.816;2024-02-15T11:47:48;38.67;;;18.05;;
69260;SDS011;56378;52.404;20.816;2024-02-15T11:50:16;37.40;;;17.63;;
69260;SDS011;56378;52.404;20.816;2024-02-15T11:52:49;34.77;;;17.40;;
69260;SDS011;56378;52.404;20.816;2024-02-15T11:55:22;38.13;;;18.08;;
69260;SDS011;56378;52.404;20.816;2024-02-15T11:57:57;37.38;;;18.45;;
69260;SDS011;56378;52.404;20.816;2024-02-15T12:00:33;33.42;;;17.25;;
69260;SDS011;56378;52.404;20.816;2024-02-15T12:03:18;36.97;;;17.88;;
69260;SDS011;56378;52.404;20.816;2024-02-15T12:06:03;30.90;;;17.43;;
69260;SDS011;56378;52.404;20.816;2024-02-15T12:08:48;34.55;;;17.33;;
69260;SDS011;56378;52.404;20.816;2024-02-15T12:11:33;33.28;;;18.23;;
69260;SDS011;56378;52.404;20.816;2024-02-15T12:14:18;38.33;;;18.23;;
69260;SDS011;56378;52.404;20.816;2024-02-15T12:17:09;36.13;;;17.73;;
69260;SDS011;56378;52.404;20.816;2024-02-15T12:19:59;32.70;;;16.93;;
69260;SDS011;56378;52.404;20.816;2024-02-15T12:22:32;40.20;;;17.60;;
69260;SDS011;56378;52.404;20.816;2024-02-15T12:25:03;36.45;;;18.35;;
69260;SDS011;56378;52.404;20.816;2024-02-15T12:27:36;33.05;;;17.73;;
69260;SDS011;56378;52.404;20.816;2024-02-15T12:30:04;33.67;;;17.77;;
69260;SDS011;56378;52.404;20.816;2024-02-15T12:32:32;34.80;;;17.43;;
69260;SDS011;56378;52.404;20.816;2024-02-15T12:35:14;33.35;;;18.27;;
69260;SDS011;56378;52.404;20.816;2024-02-15T12:38:05;38.03;;;17.85;;
69260;SDS011;56378;52.404;20.816;2024-02-15T12:40:34;38.80;;;18.30;;
69260;SDS011;56378;52.404;20.816;2024-02-15T12:43:02;33.00;;;17.85;;
69260;SDS011;56378;52.404;20.816;2024-02-15T12:45:31;35.93;;;18.80;;
69260;SDS011;56378;52.404;20.816;2024-02-15T12:47:57;39.55;;;18.90;;
69260;SDS011;56378;52.404;20.816;2024-02-15T12:50:26;40.17;;;17.65;;
69260;SDS011;56378;52.404;20.816;2024-02-15T12:52:53;39.35;;;18.30;;
69260;SDS011;56378;52.404;20.816;2024-02-15T12:55:21;39.07;;;18.40;;
69260;SDS011;56378;52.404;20.816;2024-02-15T12:57:50;36.88;;;18.35;;
69260;SDS011;56378;52.404;20.816;2024-02-15T13:00:27;38.20;;;18.85;;
69260;SDS011;56378;52.404;20.816;2024-02-15T13:02:58;39.80;;;18.10;;
69260;SDS011;56378;52.404;20.816;2024-02-15T13:05:28;35.22;;;18.30;;
69260;SDS011;56378;52.404;20.816;2024-02-15T13:07:55;38.33;;;18.00;;
69260;SDS011;56378;52.404;20.816;2024-02-15T13:10:34;38.45;;;18.38;;
69260;SDS011;56378;52.404;20.816;2024-02-15T13:15:56;36.75;;;17.88;;
69260;SDS011;56378;52.404;20.816;2024-02-15T13:18:22;38.92;;;18.75;;
69260;SDS011;56378;52.404;20.816;2024-02-15T13:20:48;31.93;;;16.60;;
69260;SDS011;56378;52.404;20.816;2024-02-15T13:23:17;37.70;;;18.52;;
69260;SDS011;56378;52.404;20.816;2024-02-15T13:25:50;37.03;;;17.85;;
69260;SDS011;56378;52.404;20.816;2024-02-15T13:28:21;35.35;;;17.95;;
69260;SDS011;56378;52.404;20.816;2024-02-15T13:30:49;36.03;;;17.90;;
69260;SDS011;56378;52.404;20.816;2024-02-15T13:33:19;34.17;;;17.38;;
69260;SDS011;56378;52.404;20.816;2024-02-15T13:35:45;37.63;;;19.35;;
69260;SDS011;56378;52.404;20.816;2024-02-15T13:38:11;35.80;;;18.37;;
69260;SDS011;56378;52.404;20.816;2024-02-15T13:40:47;39.10;;;18.88;;
69260;SDS011;56378;52.404;20.816;2024-02-15T13:43:17;37.95;;;20.00;;
69260;SDS011;56378;52.404;20.816;2024-02-15T13:45:43;40.47;;;19.50;;
69260;SDS011;56378;52.404;20.816;2024-02-15T13:48:10;37.83;;;19.30;;
69260;SDS011;56378;52.404;20.816;2024-02-15T13:50:39;39.10;;;19.90;;
69260;SDS011;56378;52.404;20.816;2024-02-15T13:53:05;37.10;;;19.45;;
69260;SDS011;56378;52.404;20.816;2024-02-15T13:55:34;36.97;;;19.77;;
69260;SDS011;56378;52.404;20.816;2024-02-15T13:58:01;39.03;;;19.35;;
69260;SDS011;56378;52.404;20.816;2024-02-15T14:00:27;38.15;;;20.23;;
69260;SDS011;56378;52.404;20.816;2024-02-15T14:02:58;36.77;;;19.83;;
69260;SDS011;56378;52.404;20.816;2024-02-15T14:05:27;39.47;;;20.05;;
69260;SDS011;56378;52.404;20.816;2024-02-15T14:07:57;41.72;;;20.52;;
69260;SDS011;56378;52.404;20.816;2024-02-15T14:10:25;39.28;;;21.42;;
69260;SDS011;56378;52.404;20.816;2024-02-15T14:12:53;37.85;;;20.65;;
69260;SDS011;56378;52.404;20.816;2024-02-15T14:15:23;35.87;;;19.50;;
69260;SDS011;56378;52.404;20.816;2024-02-15T14:17:50;40.30;;;21.33;;
69260;SDS011;56378;52.404;20.816;2024-02-15T14:20:15;34.72;;;19.33;;
69260;SDS011;56378;52.404;20.816;2024-02-15T14:22:43;43.38;;;21.27;;
69260;SDS011;56378;52.404;20.816;2024-02-15T14:25:09;40.07;;;19.57;;
69260;SDS011;56378;52.404;20.816;2024-02-15T14:27:37;38.80;;;19.77;;
69260;SDS011;56378;52.404;20.816;2024-02-15T14:30:06;39.97;;;20.02;;
69260;SDS011;56378;52.404;20.816;2024-02-15T14:32:51;38.75;;;19.17;;
69260;SDS011;56378;52.404;20.816;2024-02-15T14:35:30;38.75;;;19.88;;
69260;SDS011;56378;52.404;20.816;2024-02-15T14:38:00;39.53;;;19.33;;
69260;SDS011;56378;52.404;20.816;2024-02-15T14:40:28;40.60;;;19.20;;
69260;SDS011;56378;52.404;20.816;2024-02-15T14:42:53;40.83;;;19.35;;